Aviation Digital Data Service (ADDS)

Output produced by METARs form (0343 UTC 28 February 2021)
found at http://aviationweather.gov/metar/data/
 
METAR text: KCVH 280335Z AUTO 31013KT 10SM CLR 12/03 A3012 RMK A01
Conditions at: KCVH (HOLLISTER MUNI , CA, US) observed 0335 UTC 28 February 2021
Temperature: 12.0°C (54°F)
Dewpoint: 3.0°C (37°F) [RH = 54%]
Pressure (altimeter): 30.12 inches Hg (1020.1 mb)
Winds: from the NW (310 degrees) at 15 MPH (13 knots; 6.7 m/s)
Visibility: 10 or more miles (16+ km)
Ceiling: at least 12,000 feet AGL
Clouds: sky clear below 12,000 feet AGL
Weather: automated observation with no human augmentation;
there may or may not be significant weather present at this time